createdAt,value
2024-02-02T00:00:26.788Z,103052.34
2024-02-02T00:02:53.794Z,103062.94
2024-02-02T00:05:20.558Z,103064.41
2024-02-02T00:07:47.524Z,103068.03
2024-02-02T00:10:14.487Z,103069.84
2024-02-02T00:12:41.209Z,103058.06
2024-02-02T00:15:10.400Z,103060.78
2024-02-02T00:17:37.288Z,103050.25
2024-02-02T00:20:04.616Z,103051.13
2024-02-02T00:22:31.489Z,103030.09
2024-02-02T00:24:58.236Z,103031.56
2024-02-02T00:27:25.311Z,103039.38
2024-02-02T00:29:52.413Z,103040.16
2024-02-02T00:32:20.609Z,103027.56
2024-02-02T00:34:47.631Z,103032.13
2024-02-02T00:37:14.651Z,103017.13
2024-02-02T00:39:41.444Z,103010.06
2024-02-02T00:42:08.203Z,103006.31
2024-02-02T00:44:34.948Z,102990.47
2024-02-02T00:47:01.672Z,102988.75
2024-02-02T00:49:30.180Z,102983.06
2024-02-02T00:51:57.157Z,102980.69
2024-02-02T00:54:24.197Z,102968.91
2024-02-02T00:56:51.264Z,102973.56
2024-02-02T00:59:18.027Z,102970.84
2024-02-02T01:01:44.782Z,102955.69
2024-02-02T01:04:11.860Z,102951.41
2024-02-02T01:06:40.112Z,102951.97
2024-02-02T01:09:07.007Z,102961.88
2024-02-02T01:11:33.793Z,102969.72
2024-02-02T01:14:00.699Z,102971.06
2024-02-02T01:16:27.477Z,102987.38
2024-02-02T01:18:54.339Z,102972.19
2024-02-02T01:21:21.237Z,102967.78
2024-02-02T01:23:49.448Z,102961.88
2024-02-02T01:26:16.201Z,102943.63
2024-02-02T01:28:43.329Z,102948.91
2024-02-02T01:31:10.227Z,102948.03
2024-02-02T01:33:37.022Z,102941.84
2024-02-02T01:36:06.084Z,102940.81
2024-02-02T01:38:32.880Z,102923.16
2024-02-02T01:41:01.006Z,102922.03
2024-02-02T01:43:28.200Z,102911.59
2024-02-02T01:45:54.976Z,102900.00
2024-02-02T01:48:21.917Z,102888.66
2024-02-02T01:50:48.793Z,102910.56
2024-02-02T01:53:15.756Z,102924.59
2024-02-02T01:55:42.956Z,102922.03
2024-02-02T01:58:11.141Z,102920.16
2024-02-02T02:00:38.207Z,102921.19
2024-02-02T02:03:05.667Z,102913.28
2024-02-02T02:05:32.574Z,102909.69
2024-02-02T02:07:59.659Z,102900.38
2024-02-02T02:10:27.474Z,102887.28
2024-02-02T02:12:54.293Z,102879.41
2024-02-02T02:15:22.550Z,102875.66
2024-02-02T02:17:49.652Z,102869.53
2024-02-02T02:20:21.664Z,102856.84
2024-02-02T02:22:50.050Z,102844.72
2024-02-02T02:25:16.979Z,102844.06
2024-02-02T02:27:43.860Z,102840.41
2024-02-02T02:30:11.751Z,102825.59
2024-02-02T02:32:38.883Z,102831.84
2024-02-02T02:35:06.506Z,102832.84
2024-02-02T02:37:33.307Z,102829.19
2024-02-02T02:40:01.420Z,102825.34
2024-02-02T02:42:28.201Z,102819.25
2024-02-02T02:44:55.029Z,102817.22
2024-02-02T02:47:21.932Z,102810.84
2024-02-02T02:49:48.823Z,102812.44
2024-02-02T02:52:15.766Z,102825.75
2024-02-02T02:54:42.680Z,102814.91
2024-02-02T02:57:10.868Z,102820.19
2024-02-02T02:59:37.634Z,102822.06
2024-02-02T03:02:04.644Z,102815.78
2024-02-02T03:04:31.466Z,102817.38
2024-02-02T03:06:58.492Z,102811.38
2024-02-02T03:09:25.420Z,102804.75
2024-02-02T03:11:52.403Z,102801.41
2024-02-02T03:14:20.559Z,102810.69
2024-02-02T03:16:47.259Z,102807.72
2024-02-02T03:19:14.198Z,102815.34
2024-02-02T03:21:41.000Z,102814.84
2024-02-02T03:24:07.858Z,102815.97
2024-02-02T03:26:34.618Z,102815.25
2024-02-02T03:29:01.383Z,102808.44
2024-02-02T03:31:29.983Z,102778.53
2024-02-02T03:33:56.849Z,102781.19
2024-02-02T03:36:23.904Z,102781.28
2024-02-02T03:38:50.761Z,102773.47
2024-02-02T03:41:17.670Z,102792.13
2024-02-02T03:43:44.466Z,102795.59
2024-02-02T03:46:11.245Z,102789.50
2024-02-02T03:48:39.411Z,102785.78
2024-02-02T03:51:06.551Z,102786.75
2024-02-02T03:53:33.262Z,102779.00
2024-02-02T03:56:00.182Z,102778.09
2024-02-02T03:58:26.936Z,102780.75
2024-02-02T04:00:53.675Z,102777.19
2024-02-02T04:03:20.687Z,102779.09
2024-02-02T04:05:48.960Z,102781.25
2024-02-02T04:08:15.871Z,102774.25
2024-02-02T04:10:42.658Z,102764.19
2024-02-02T04:13:09.402Z,102761.63
2024-02-02T04:15:36.176Z,102759.91
2024-02-02T04:18:03.188Z,102752.94
2024-02-02T04:20:30.108Z,102750.50
2024-02-02T04:22:58.301Z,102758.41
2024-02-02T04:25:25.358Z,102746.22
2024-02-02T04:27:52.093Z,102744.47
2024-02-02T04:30:18.924Z,102743.66
2024-02-02T04:32:46.012Z,102735.84
2024-02-02T04:35:13.160Z,102728.78
2024-02-02T04:37:40.218Z,102728.81
2024-02-02T04:40:09.523Z,102728.78
2024-02-02T04:42:36.428Z,102729.09
2024-02-02T04:45:03.575Z,102726.44
2024-02-02T04:47:30.349Z,102715.09
2024-02-02T04:49:57.305Z,102716.03
2024-02-02T04:52:24.272Z,102718.78
2024-02-02T04:54:50.967Z,102717.97
2024-02-02T04:57:19.111Z,102716.84
2024-02-02T04:59:45.951Z,102706.34
2024-02-02T05:02:12.989Z,102708.19
2024-02-02T05:04:39.992Z,102716.03
2024-02-02T05:07:07.191Z,102713.53
2024-02-02T05:09:34.032Z,102705.59
2024-02-02T05:12:01.004Z,102709.06
2024-02-02T05:14:29.182Z,102692.53
2024-02-02T05:16:55.986Z,102708.91
2024-02-02T05:19:23.674Z,102714.47
2024-02-02T05:21:50.518Z,102718.91
2024-02-02T05:24:31.568Z,102729.41
2024-02-02T05:27:04.506Z,102728.78
2024-02-02T05:29:32.682Z,102731.91
2024-02-02T05:31:59.418Z,102726.06
2024-02-02T05:34:26.350Z,102738.66
2024-02-02T05:36:53.215Z,102734.09
2024-02-02T05:39:20.048Z,102743.75
2024-02-02T05:41:46.780Z,102735.84
2024-02-02T05:44:13.939Z,102725.19
2024-02-02T05:46:42.059Z,102719.81
2024-02-02T05:49:09.345Z,102720.84
2024-02-02T05:51:36.180Z,102728.84
2024-02-02T05:54:03.038Z,102717.56
2024-02-02T05:56:29.746Z,102723.56
2024-02-02T05:58:56.504Z,102720.13
2024-02-02T06:01:23.279Z,102716.63
2024-02-02T06:03:51.581Z,102724.47
2024-02-02T06:06:18.648Z,102719.19
2024-02-02T06:08:45.430Z,102701.63
2024-02-02T06:11:12.245Z,102713.16
2024-02-02T06:13:39.063Z,102728.13
2024-02-02T06:16:06.119Z,102716.63
2024-02-02T06:18:33.191Z,102705.16
2024-02-02T06:21:01.441Z,102708.59
2024-02-02T06:23:28.306Z,102704.38
2024-02-02T06:25:55.057Z,102694.66
2024-02-02T06:28:21.815Z,102702.56
2024-02-02T06:30:48.558Z,102690.41
2024-02-02T06:33:15.628Z,102683.28
2024-02-02T06:35:42.452Z,102689.13
2024-02-02T06:38:10.604Z,102687.03
2024-02-02T06:40:37.364Z,102687.59
2024-02-02T06:43:04.487Z,102683.19
2024-02-02T06:45:31.450Z,102678.81
2024-02-02T06:47:58.290Z,102678.94
2024-02-02T06:50:25.142Z,102675.09
2024-02-02T06:52:52.361Z,102669.97
2024-02-02T06:55:20.597Z,102676.13
2024-02-02T06:57:47.479Z,102664.72
2024-02-02T07:00:16.442Z,102670.94
2024-02-02T07:02:44.210Z,102656.66
2024-02-02T07:05:13.463Z,102665.63
2024-02-02T07:07:40.339Z,102657.78
2024-02-02T07:10:10.377Z,102661.00
2024-02-02T07:12:58.894Z,102666.09
2024-02-02T07:15:28.166Z,102654.66
2024-02-02T07:17:55.444Z,102656.50
2024-02-02T07:20:59.454Z,102653.69
2024-02-02T07:23:33.752Z,102664.25
2024-02-02T07:26:01.084Z,102651.94
2024-02-02T07:28:36.004Z,102660.50
2024-02-02T07:31:04.016Z,102657.28
2024-02-02T07:33:38.637Z,102664.78
2024-02-02T07:36:10.016Z,102669.38
2024-02-02T07:38:43.868Z,102662.88
2024-02-02T07:41:12.189Z,102667.34
2024-02-02T07:43:40.561Z,102668.88
2024-02-02T07:46:11.310Z,102665.53
2024-02-02T07:48:40.747Z,102663.84
2024-02-02T07:51:08.076Z,102674.34
2024-02-02T07:53:35.268Z,102675.19
2024-02-02T07:56:02.428Z,102681.56
2024-02-02T07:58:29.475Z,102686.94
2024-02-02T08:00:58.674Z,102682.00
2024-02-02T08:03:25.755Z,102674.94
2024-02-02T08:05:53.139Z,102668.84
2024-02-02T08:08:19.910Z,102667.78
2024-02-02T08:10:47.745Z,102668.41
2024-02-02T08:13:15.039Z,102667.44
2024-02-02T08:15:41.991Z,102657.81
2024-02-02T08:18:10.712Z,102662.69
2024-02-02T08:20:38.251Z,102659.41
2024-02-02T08:23:06.223Z,102665.31
2024-02-02T08:25:33.024Z,102661.72
2024-02-02T08:28:01.211Z,102659.72
2024-02-02T08:30:28.275Z,102656.88
2024-02-02T08:32:55.539Z,102657.56
2024-02-02T08:35:25.431Z,102665.13
2024-02-02T08:37:52.436Z,102666.19
2024-02-02T08:40:36.351Z,102670.97
2024-02-02T08:43:03.396Z,102666.09
2024-02-02T08:46:15.341Z,102666.78
2024-02-02T08:48:44.129Z,102661.63
2024-02-02T08:51:50.142Z,102663.13
2024-02-02T08:54:47.510Z,102655.25
2024-02-02T08:57:31.891Z,102649.78
2024-02-02T09:00:00.562Z,102650.31
2024-02-02T09:02:53.967Z,102649.59
2024-02-02T09:05:22.357Z,102643.25
2024-02-02T09:07:52.249Z,102640.25
2024-02-02T09:10:56.263Z,102632.97
2024-02-02T09:13:25.828Z,102633.59
2024-02-02T09:15:53.639Z,102635.34
2024-02-02T09:18:34.729Z,102646.31
2024-02-02T09:21:02.999Z,102643.31
2024-02-02T09:23:32.622Z,102629.53
2024-02-02T09:26:00.650Z,102640.38
2024-02-02T09:28:41.784Z,102648.28
2024-02-02T09:31:11.817Z,102652.66
2024-02-02T09:33:46.156Z,102651.31
2024-02-02T09:36:13.778Z,102641.38
2024-02-02T09:38:54.822Z,102654.88
2024-02-02T09:41:58.964Z,102656.41
2024-02-02T09:44:44.361Z,102655.63
2024-02-02T09:47:22.893Z,102653.47
2024-02-02T09:50:00.474Z,102644.94
2024-02-02T09:52:38.368Z,102643.22
2024-02-02T09:55:16.727Z,102638.75
2024-02-02T09:57:50.642Z,102649.69
2024-02-02T10:00:25.908Z,102644.81
2024-02-02T10:03:12.043Z,102648.44
2024-02-02T10:05:50.189Z,102667.63
2024-02-02T10:08:33.505Z,102664.69
2024-02-02T10:11:22.574Z,102671.56
2024-02-02T10:14:06.868Z,102656.19
2024-02-02T10:16:42.847Z,102664.88
2024-02-02T10:19:31.377Z,102677.22
2024-02-02T10:22:16.759Z,102673.09
2024-02-02T10:25:00.438Z,102667.00
2024-02-02T10:27:42.682Z,102658.81
2024-02-02T10:30:26.848Z,102667.44
2024-02-02T10:33:06.047Z,102655.19
2024-02-02T10:35:39.882Z,102659.28
2024-02-02T10:38:19.856Z,102667.75
2024-02-02T10:40:58.586Z,102659.53
2024-02-02T10:43:41.860Z,102670.53
2024-02-02T10:46:21.476Z,102675.13
2024-02-02T10:49:04.050Z,102673.69
2024-02-02T10:51:39.223Z,102663.06
2024-02-02T10:54:18.750Z,102662.19
2024-02-02T10:56:59.507Z,102665.59
2024-02-02T10:59:39.343Z,102660.41
2024-02-02T11:02:16.860Z,102664.72
2024-02-02T11:04:57.025Z,102658.22
2024-02-02T11:07:27.606Z,102648.09
2024-02-02T11:09:58.242Z,102651.28
2024-02-02T11:12:36.049Z,102649.28
2024-02-02T11:15:18.771Z,102640.63
2024-02-02T11:17:55.732Z,102639.44
2024-02-02T11:20:36.625Z,102633.34
2024-02-02T11:23:10.479Z,102643.44
2024-02-02T11:25:42.294Z,102632.03
2024-02-02T11:28:17.116Z,102631.91
2024-02-02T11:30:57.609Z,102633.53
2024-02-02T11:33:47.902Z,102635.59
2024-02-02T11:36:41.079Z,102641.44
2024-02-02T11:39:22.212Z,102632.06
2024-02-02T11:41:49.852Z,102625.25
2024-02-02T11:44:18.045Z,102622.88
2024-02-02T11:46:48.292Z,102635.34
2024-02-02T11:49:24.847Z,102640.53
2024-02-02T11:51:55.364Z,102635.25
2024-02-02T11:54:27.780Z,102644.34
2024-02-02T11:56:56.612Z,102629.44
2024-02-02T11:59:28.183Z,102628.28
2024-02-02T12:02:15.259Z,102612.78
2024-02-02T12:04:45.141Z,102622.72
2024-02-02T12:07:24.879Z,102633.22
2024-02-02T12:09:58.478Z,102629.31
2024-02-02T12:12:32.559Z,102619.00
2024-02-02T12:14:59.603Z,102600.72
2024-02-02T12:17:27.864Z,102593.97
2024-02-02T12:19:55.451Z,102595.94
2024-02-02T12:22:22.355Z,102595.41
2024-02-02T12:24:49.178Z,102597.34
2024-02-02T12:27:16.312Z,102586.41
2024-02-02T12:29:43.288Z,102587.00
2024-02-02T12:32:11.704Z,102581.53
2024-02-02T12:34:40.469Z,102582.38
2024-02-02T12:37:07.498Z,102580.06
2024-02-02T12:39:34.466Z,102589.25
2024-02-02T12:42:01.789Z,102584.84
2024-02-02T12:44:30.367Z,102583.41
2024-02-02T12:46:57.286Z,102568.28
2024-02-02T12:49:26.354Z,102560.31
2024-02-02T12:51:55.472Z,102554.09
2024-02-02T12:54:22.292Z,102559.72
2024-02-02T12:56:49.172Z,102560.19
2024-02-02T12:59:15.997Z,102566.16
2024-02-02T13:01:42.905Z,102566.34
2024-02-02T13:04:10.590Z,102559.81
2024-02-02T13:06:37.596Z,102555.19
2024-02-02T13:09:26.087Z,102546.94
2024-02-02T13:11:54.118Z,102542.72
2024-02-02T13:14:28.321Z,102530.75
2024-02-02T13:17:09.043Z,102548.59
2024-02-02T13:19:40.456Z,102550.38
2024-02-02T13:22:15.725Z,102545.66
2024-02-02T13:24:54.170Z,102530.53
2024-02-02T13:27:23.313Z,102539.66
2024-02-02T13:29:54.407Z,102533.88
2024-02-02T13:32:21.441Z,102540.91
2024-02-02T13:34:48.292Z,102537.53
2024-02-02T13:37:15.175Z,102534.63
2024-02-02T13:39:45.542Z,102531.66
2024-02-02T13:42:13.996Z,102524.16
2024-02-02T13:44:40.975Z,102514.44
2024-02-02T13:47:11.372Z,102513.28
2024-02-02T13:49:38.457Z,102508.59
2024-02-02T13:52:05.966Z,102515.44
2024-02-02T13:54:32.960Z,102508.50
2024-02-02T13:57:01.020Z,102516.31
2024-02-02T13:59:29.429Z,102520.19
2024-02-02T14:02:04.830Z,102522.47
2024-02-02T14:04:31.747Z,102511.41
2024-02-02T14:06:58.602Z,102523.41
2024-02-02T14:09:25.461Z,102518.66
2024-02-02T14:11:59.942Z,102516.34
2024-02-02T14:14:26.954Z,102507.16
2024-02-02T14:17:02.014Z,102510.25
2024-02-02T14:19:29.006Z,102507.41
2024-02-02T14:22:04.286Z,102494.34
2024-02-02T14:24:31.148Z,102506.22
2024-02-02T14:27:00.241Z,102493.97
2024-02-02T14:29:27.136Z,102499.13
2024-02-02T14:31:54.986Z,102494.72
2024-02-02T14:34:23.615Z,102497.38
2024-02-02T14:36:50.744Z,102509.06
2024-02-02T14:39:18.982Z,102495.84
2024-02-02T14:41:45.879Z,102487.53
2024-02-02T14:44:12.608Z,102496.81
2024-02-02T14:46:39.543Z,102493.06
2024-02-02T14:49:09.475Z,102493.00
2024-02-02T14:51:38.327Z,102481.97
2024-02-02T14:54:05.819Z,102484.44
2024-02-02T14:56:33.201Z,102490.28
2024-02-02T14:59:00.325Z,102485.72
2024-02-02T15:01:27.124Z,102490.75
2024-02-02T15:03:54.356Z,102483.78
2024-02-02T15:06:21.652Z,102490.41
2024-02-02T15:08:49.896Z,102494.22
2024-02-02T15:11:16.892Z,102486.06
2024-02-02T15:13:43.723Z,102491.25
2024-02-02T15:16:12.508Z,102505.59
2024-02-02T15:18:39.318Z,102493.06
2024-02-02T15:21:06.222Z,102496.22
2024-02-02T15:23:33.378Z,102480.25
2024-02-02T15:26:01.693Z,102490.50
2024-02-02T15:28:28.505Z,102490.47
2024-02-02T15:30:56.186Z,102484.84
2024-02-02T15:33:23.026Z,102489.53
2024-02-02T15:35:50.007Z,102485.31
2024-02-02T15:38:16.729Z,102493.53
2024-02-02T15:40:43.580Z,102473.72
2024-02-02T15:43:11.813Z,102490.28
2024-02-02T15:45:38.591Z,102485.81
2024-02-02T15:48:06.163Z,102477.81
2024-02-02T15:50:33.035Z,102472.50
2024-02-02T15:53:02.430Z,102476.19
2024-02-02T15:55:29.345Z,102479.50
2024-02-02T15:57:56.183Z,102482.75
2024-02-02T16:00:24.406Z,102480.72
2024-02-02T16:02:51.286Z,102470.09
2024-02-02T16:05:18.617Z,102467.59
2024-02-02T16:07:45.766Z,102471.38
2024-02-02T16:10:13.488Z,102470.06
2024-02-02T16:12:40.695Z,102475.97
2024-02-02T16:15:08.665Z,102476.09
2024-02-02T16:17:36.987Z,102482.19
2024-02-02T16:20:04.374Z,102478.78
2024-02-02T16:22:31.242Z,102482.72
2024-02-02T16:24:58.154Z,102485.63
2024-02-02T16:27:25.121Z,102479.53
2024-02-02T16:29:51.881Z,102481.22
2024-02-02T16:32:18.685Z,102477.78
2024-02-02T16:34:46.928Z,102484.44
2024-02-02T16:37:13.797Z,102491.19
2024-02-02T16:39:40.710Z,102493.84
2024-02-02T16:42:07.516Z,102500.78
2024-02-02T16:44:34.280Z,102504.06
2024-02-02T16:47:03.952Z,102498.47
2024-02-02T16:49:30.835Z,102503.50
2024-02-02T16:51:59.758Z,102510.97
2024-02-02T16:54:27.049Z,102511.31
2024-02-02T16:56:54.140Z,102505.03
2024-02-02T16:59:21.286Z,102515.06
2024-02-02T17:01:48.155Z,102524.91
2024-02-02T17:04:15.247Z,102520.75
2024-02-02T17:06:42.452Z,102526.16
2024-02-02T17:09:11.085Z,102534.06
2024-02-02T17:11:38.160Z,102537.13
2024-02-02T17:14:05.073Z,102532.84
2024-02-02T17:16:35.748Z,102522.34
2024-02-02T17:19:03.431Z,102536.69
2024-02-02T17:21:30.651Z,102529.03
2024-02-02T17:23:57.786Z,102549.00
2024-02-02T17:26:26.113Z,102544.34
2024-02-02T17:28:59.983Z,102548.78
2024-02-02T17:31:30.580Z,102547.63
2024-02-02T17:33:57.644Z,102538.59
2024-02-02T17:36:24.821Z,102548.19
2024-02-02T17:38:52.170Z,102544.28
2024-02-02T17:41:19.383Z,102544.34
2024-02-02T17:43:47.791Z,102539.88
2024-02-02T17:46:15.605Z,102537.34
2024-02-02T17:48:42.628Z,102546.91
2024-02-02T17:51:09.880Z,102546.06
2024-02-02T17:53:38.032Z,102549.47
2024-02-02T17:56:05.851Z,102548.44
2024-02-02T17:58:33.602Z,102547.72
2024-02-02T18:01:02.311Z,102548.56
2024-02-02T18:03:29.788Z,102561.09
2024-02-02T18:05:56.784Z,102559.22
2024-02-02T18:08:24.374Z,102565.53
2024-02-02T18:10:51.529Z,102570.03
2024-02-02T18:13:18.869Z,102576.31
2024-02-02T18:15:45.991Z,102571.50
2024-02-02T18:18:14.603Z,102566.84
2024-02-02T18:20:42.142Z,102568.19
2024-02-02T18:23:09.037Z,102567.06
2024-02-02T18:25:36.026Z,102559.53
2024-02-02T18:28:02.980Z,102553.63
2024-02-02T18:30:30.115Z,102546.00
2024-02-02T18:32:57.120Z,102547.94
2024-02-02T18:35:25.566Z,102518.00
2024-02-02T18:37:52.498Z,102549.16
2024-02-02T18:40:19.680Z,102538.88
2024-02-02T18:42:46.754Z,102524.91
2024-02-02T18:45:14.182Z,102528.31
2024-02-02T18:47:45.943Z,102533.56
2024-02-02T18:50:12.922Z,102534.34
2024-02-02T18:52:41.442Z,102525.50
2024-02-02T18:55:11.454Z,102537.69
2024-02-02T18:57:38.616Z,102529.81
2024-02-02T19:00:14.195Z,102528.69
2024-02-02T19:02:41.653Z,102528.91
2024-02-02T19:05:09.333Z,102521.19
2024-02-02T19:07:39.211Z,102511.94
2024-02-02T19:10:08.236Z,102525.78
2024-02-02T19:12:35.186Z,102515.59
2024-02-02T19:15:04.864Z,102506.34
2024-02-02T19:17:32.035Z,102507.44
2024-02-02T19:20:01.424Z,102518.81
2024-02-02T19:22:28.630Z,102516.59
2024-02-02T19:24:56.034Z,102521.72
2024-02-02T19:27:25.925Z,102525.22
2024-02-02T19:29:53.108Z,102531.75
2024-02-02T19:32:19.981Z,102529.31
2024-02-02T19:34:47.358Z,102532.09
2024-02-02T19:37:14.585Z,102526.75
2024-02-02T19:39:41.758Z,102511.34
2024-02-02T19:42:09.164Z,102511.06
2024-02-02T19:44:37.484Z,102505.75
2024-02-02T19:47:04.790Z,102505.66
2024-02-02T19:49:33.216Z,102494.25
2024-02-02T19:52:00.356Z,102499.38
2024-02-02T19:54:27.190Z,102493.69
2024-02-02T19:56:53.977Z,102509.97
2024-02-02T19:59:20.817Z,102514.63
2024-02-02T20:01:49.030Z,102509.66
2024-02-02T20:04:16.273Z,102507.69
2024-02-02T20:06:43.231Z,102502.84
2024-02-02T20:09:10.137Z,102487.84
2024-02-02T20:11:37.037Z,102514.72
2024-02-02T20:14:03.856Z,102516.56
2024-02-02T20:16:30.639Z,102514.47
2024-02-02T20:18:58.886Z,102528.22
2024-02-02T20:21:25.883Z,102536.22
2024-02-02T20:23:52.970Z,102526.34
2024-02-02T20:26:21.384Z,102531.41
2024-02-02T20:28:48.802Z,102538.22
2024-02-02T20:31:15.654Z,102535.56
2024-02-02T20:33:42.789Z,102527.56
2024-02-02T20:36:11.312Z,102532.66
2024-02-02T20:38:38.317Z,102535.31
2024-02-02T20:41:05.493Z,102536.03
2024-02-02T20:43:32.497Z,102536.63
2024-02-02T20:45:59.672Z,102525.00
2024-02-02T20:48:26.744Z,102526.75
2024-02-02T20:50:53.553Z,102533.72
2024-02-02T20:53:21.649Z,102532.56
2024-02-02T20:55:48.806Z,102533.56
2024-02-02T20:58:15.590Z,102545.03
2024-02-02T21:00:42.496Z,102541.56
2024-02-02T21:03:09.455Z,102535.88
2024-02-02T21:05:36.747Z,102537.00
2024-02-02T21:08:04.015Z,102523.84
2024-02-02T21:10:32.371Z,102530.38
2024-02-02T21:12:59.299Z,102523.44
2024-02-02T21:15:26.681Z,102525.31
2024-02-02T21:17:53.469Z,102518.13
2024-02-02T21:20:20.200Z,102514.44
2024-02-02T21:22:47.288Z,102526.84
2024-02-02T21:25:14.095Z,102524.38
2024-02-02T21:27:42.333Z,102533.81
2024-02-02T21:30:10.144Z,102531.44
2024-02-02T21:32:36.930Z,102530.31
2024-02-02T21:35:04.050Z,102549.13
2024-02-02T21:37:30.927Z,102538.28
2024-02-02T21:39:57.870Z,102538.50
2024-02-02T21:42:24.959Z,102531.69
2024-02-02T21:44:53.113Z,102535.25
2024-02-02T21:47:19.823Z,102548.75
2024-02-02T21:49:46.729Z,102540.56
2024-02-02T21:52:13.582Z,102538.88
2024-02-02T21:54:40.344Z,102535.25
2024-02-02T21:57:07.055Z,102537.00
2024-02-02T21:59:33.883Z,102540.44
2024-02-02T22:02:01.956Z,102528.72
2024-02-02T22:04:28.759Z,102519.19
2024-02-02T22:06:55.567Z,102517.13
2024-02-02T22:09:22.349Z,102509.25
2024-02-02T22:11:49.113Z,102508.44
2024-02-02T22:14:15.803Z,102505.25
2024-02-02T22:16:42.539Z,102507.84
2024-02-02T22:19:10.823Z,102495.47
2024-02-02T22:21:37.777Z,102528.09
2024-02-02T22:24:05.346Z,102532.31
2024-02-02T22:26:32.172Z,102533.25
2024-02-02T22:28:58.898Z,102531.25
2024-02-02T22:31:25.649Z,102524.00
2024-02-02T22:33:52.474Z,102519.81
2024-02-02T22:36:23.605Z,102520.94
2024-02-02T22:38:50.346Z,102521.44
2024-02-02T22:41:29.058Z,102517.72
2024-02-02T22:44:00.637Z,102521.22
2024-02-02T22:46:30.457Z,102516.47
2024-02-02T22:48:57.317Z,102509.53
2024-02-02T22:51:25.693Z,102519.25
2024-02-02T22:53:52.648Z,102518.44
2024-02-02T22:56:19.417Z,102516.66
2024-02-02T22:58:46.121Z,102518.97
2024-02-02T23:01:13.094Z,102509.28
2024-02-02T23:03:40.140Z,102512.44
2024-02-02T23:06:07.707Z,102524.75
2024-02-02T23:08:36.023Z,102521.22
2024-02-02T23:11:02.771Z,102521.00
2024-02-02T23:13:29.591Z,102523.38
2024-02-02T23:15:56.435Z,102515.56
2024-02-02T23:18:23.295Z,102508.53
2024-02-02T23:20:50.302Z,102504.28
2024-02-02T23:23:17.758Z,102519.03
2024-02-02T23:25:45.951Z,102517.16
2024-02-02T23:28:13.151Z,102529.16
2024-02-02T23:30:39.919Z,102524.44
2024-02-02T23:33:06.825Z,102527.28
2024-02-02T23:35:33.626Z,102528.41
2024-02-02T23:38:00.394Z,102533.34
2024-02-02T23:40:27.166Z,102537.88
2024-02-02T23:42:55.642Z,102542.09
2024-02-02T23:45:23.059Z,102543.88
2024-02-02T23:47:49.962Z,102542.31
2024-02-02T23:50:16.879Z,102543.97
2024-02-02T23:52:43.637Z,102535.47
2024-02-02T23:55:10.863Z,102530.41
2024-02-02T23:57:37.814Z,102551.69
